DURO2: Washita River Durwood, OK

                                SHEF ID:       DURO2     Washita River near Dickson, OK
STATION TYPE:
Regulating: Stage = 27.00, Flow = 32534

PRECIP PRECIP(A) STAGE STAGE(2) RIV-FLOW BAT-LOAD
in in ft ft cfs volt
Ccp-Rev Ccp-Rev Ccp-Rev Ccp-Rev Ccp-Rev Ccp-Rev
(America/Chicago)
04/20 00:00 0.00 ---- 9.77 9.75 1868 12.37
04/20 01:00 0.00 ---- 9.74 9.73 1837 12.34
04/20 02:00 0.00 ---- 9.72 9.71 1816 12.31
04/20 03:00 0.00 ---- 9.70 9.68 1796 12.30
04/20 04:00 0.00 ---- 9.68 9.67 1775 12.27
04/20 05:00 0.00 ---- 9.66 9.64 1755 12.24
04/20 06:00 0.00 ---- 9.63 9.62 1725 12.22
04/20 07:00 0.00 ---- 9.61 9.59 1706 12.21
04/20 08:00 0.00 ---- 9.59 9.57 1687 12.25
04/20 09:00 0.00 ---- 9.57 9.55 1670 12.57
04/20 10:00 0.00 ---- 9.55 9.53 1654 13.20
04/20 11:00 0.00 ---- 9.52 9.50 1629 13.53
04/20 12:00 0.00 ---- 9.49 9.48 1605 13.47
04/20 13:00 0.00 ---- 9.46 9.46 1581 13.42
04/20 14:00 0.00 ---- 9.45 9.44 1573 12.98
04/20 15:00 0.00 ---- 9.41 9.41 1542 12.96
04/20 16:00 0.00 ---- 9.38 9.37 1519 12.93
04/20 17:00 0.00 ---- 9.35 9.34 1489 12.93
04/20 18:00 0.00 ---- 9.33 9.32 1469 12.99
04/20 19:00 0.00 ---- 9.31 9.30 1449 13.03
04/20 20:00 0.00 ---- 9.29 9.28 1429 12.92
04/20 21:00 0.00 ---- 9.27 9.26 1410 12.60
04/20 22:00 0.00 ---- 9.25 9.24 1391 12.48
04/20 23:00 0.00 ---- 9.25 9.23 1391 12.44
Data processed at Tue 21Apr2026 04:36 GMT

NOTICE: If you are parsing this page

Please convert to using our Data API. Starting early 2026 we will be migrating to: https://water.usace.army.mil with modern pages rendered in JavaScript. When this migration completes you will no longer be able to scrape this page! CWMSDataAPI (CDA)

Timeseries IDs (TSIDs)

TSIDs used from left to right in the data table
DICK.Precip-Inc.Total.1Hour.1Hour.Ccp-Rev
DICK.Precip-Inc Alt.Total.1Hour.1Hour.Ccp-Rev
DICK.Stage.Inst.1Hour.0.Ccp-Rev
DICK.Flow.Inst.1Hour.0.Ccp-Rev
DICK.Volt-Battery Load.Inst.1Hour.0.Ccp-Rev

                            

All information presented herein is the property of the government of the United States of America and may be revised or deleted at any time without prior notice. Dissemination of this information without the expressed written consent of the Public Affairs Office, Tulsa District U.S. Army Corps of Engineers is strictly prohibited. These data are gathered electronically and, as presented, have NOT undergone any form of quality control. These data are NOT guaranteed to be valid or correct.